sensor_id;sensor_type;location;lat;lon;timestamp;P1;durP1;ratioP1;P2;durP2;ratioP2
73840;SDS011;62183;49.006;12.102;2022-10-29T00:00:21;13.07;;;9.67;;
73840;SDS011;62183;49.006;12.102;2022-10-29T00:02:46;15.93;;;10.70;;
73840;SDS011;62183;49.006;12.102;2022-10-29T00:05:11;11.90;;;8.40;;
73840;SDS011;62183;49.006;12.102;2022-10-29T00:07:36;10.83;;;8.33;;
73840;SDS011;62183;49.006;12.102;2022-10-29T00:10:02;14.23;;;8.53;;
73840;SDS011;62183;49.006;12.102;2022-10-29T00:12:27;10.52;;;7.90;;
73840;SDS011;62183;49.006;12.102;2022-10-29T00:14:52;14.30;;;9.70;;
73840;SDS011;62183;49.006;12.102;2022-10-29T00:17:17;11.60;;;8.63;;
73840;SDS011;62183;49.006;12.102;2022-10-29T00:19:42;11.73;;;9.27;;
73840;SDS011;62183;49.006;12.102;2022-10-29T00:22:08;13.73;;;10.07;;
73840;SDS011;62183;49.006;12.102;2022-10-29T00:24:33;14.83;;;9.67;;
73840;SDS011;62183;49.006;12.102;2022-10-29T00:26:58;15.00;;;9.73;;
73840;SDS011;62183;49.006;12.102;2022-10-29T00:29:23;14.30;;;9.53;;
73840;SDS011;62183;49.006;12.102;2022-10-29T00:31:49;12.87;;;9.53;;
73840;SDS011;62183;49.006;12.102;2022-10-29T00:34:14;14.07;;;9.55;;
73840;SDS011;62183;49.006;12.102;2022-10-29T00:36:39;11.77;;;9.40;;
73840;SDS011;62183;49.006;12.102;2022-10-29T00:39:05;12.47;;;9.40;;
73840;SDS011;62183;49.006;12.102;2022-10-29T00:41:30;13.87;;;9.17;;
73840;SDS011;62183;49.006;12.102;2022-10-29T00:46:49;13.63;;;9.23;;
73840;SDS011;62183;49.006;12.102;2022-10-29T00:49:15;11.15;;;8.05;;
73840;SDS011;62183;49.006;12.102;2022-10-29T00:51:40;12.45;;;7.38;;
73840;SDS011;62183;49.006;12.102;2022-10-29T00:54:11;12.23;;;8.32;;
73840;SDS011;62183;49.006;12.102;2022-10-29T00:56:38;13.77;;;9.13;;
73840;SDS011;62183;49.006;12.102;2022-10-29T00:59:04;16.05;;;8.90;;
73840;SDS011;62183;49.006;12.102;2022-10-29T01:01:31;15.23;;;9.18;;
73840;SDS011;62183;49.006;12.102;2022-10-29T01:03:57;15.37;;;9.20;;
73840;SDS011;62183;49.006;12.102;2022-10-29T01:06:23;12.23;;;8.48;;
73840;SDS011;62183;49.006;12.102;2022-10-29T01:08:49;11.88;;;7.90;;
73840;SDS011;62183;49.006;12.102;2022-10-29T01:37:22;12.48;;;8.73;;
73840;SDS011;62183;49.006;12.102;2022-10-29T01:42:23;14.57;;;8.65;;
73840;SDS011;62183;49.006;12.102;2022-10-29T01:47:17;11.47;;;7.97;;
73840;SDS011;62183;49.006;12.102;2022-10-29T01:49:44;14.73;;;9.70;;
73840;SDS011;62183;49.006;12.102;2022-10-29T01:52:10;15.65;;;9.38;;
73840;SDS011;62183;49.006;12.102;2022-10-29T01:54:40;14.40;;;9.15;;
73840;SDS011;62183;49.006;12.102;2022-10-29T01:57:21;14.18;;;9.13;;
73840;SDS011;62183;49.006;12.102;2022-10-29T01:59:49;15.45;;;8.98;;
73840;SDS011;62183;49.006;12.102;2022-10-29T02:02:19;12.20;;;8.65;;
73840;SDS011;62183;49.006;12.102;2022-10-29T02:04:53;13.52;;;8.57;;
73840;SDS011;62183;49.006;12.102;2022-10-29T02:14:48;12.83;;;8.87;;
73840;SDS011;62183;49.006;12.102;2022-10-29T02:17:15;14.23;;;9.32;;
73840;SDS011;62183;49.006;12.102;2022-10-29T02:19:40;12.65;;;8.52;;
73840;SDS011;62183;49.006;12.102;2022-10-29T02:22:06;11.63;;;7.78;;
73840;SDS011;62183;49.006;12.102;2022-10-29T02:24:31;13.70;;;8.70;;
73840;SDS011;62183;49.006;12.102;2022-10-29T02:26:56;15.13;;;9.43;;
73840;SDS011;62183;49.006;12.102;2022-10-29T02:29:21;10.90;;;8.63;;
73840;SDS011;62183;49.006;12.102;2022-10-29T02:31:46;12.03;;;9.37;;
73840;SDS011;62183;49.006;12.102;2022-10-29T02:34:12;14.20;;;9.53;;
73840;SDS011;62183;49.006;12.102;2022-10-29T02:36:37;17.57;;;10.07;;
73840;SDS011;62183;49.006;12.102;2022-10-29T02:39:02;18.27;;;8.70;;
73840;SDS011;62183;49.006;12.102;2022-10-29T02:41:27;14.82;;;8.95;;
73840;SDS011;62183;49.006;12.102;2022-10-29T02:43:53;14.00;;;8.50;;
73840;SDS011;62183;49.006;12.102;2022-10-29T02:46:19;13.37;;;9.17;;
73840;SDS011;62183;49.006;12.102;2022-10-29T02:48:44;12.38;;;8.82;;
73840;SDS011;62183;49.006;12.102;2022-10-29T02:51:09;14.90;;;9.05;;
73840;SDS011;62183;49.006;12.102;2022-10-29T02:53:35;13.63;;;9.60;;
73840;SDS011;62183;49.006;12.102;2022-10-29T02:56:00;10.90;;;8.33;;
73840;SDS011;62183;49.006;12.102;2022-10-29T02:58:25;11.97;;;8.53;;
73840;SDS011;62183;49.006;12.102;2022-10-29T03:00:51;11.20;;;8.43;;
73840;SDS011;62183;49.006;12.102;2022-10-29T03:03:16;15.02;;;9.43;;
73840;SDS011;62183;49.006;12.102;2022-10-29T03:05:41;13.20;;;9.30;;
73840;SDS011;62183;49.006;12.102;2022-10-29T03:08:06;13.68;;;9.50;;
73840;SDS011;62183;49.006;12.102;2022-10-29T03:10:32;14.33;;;9.07;;
73840;SDS011;62183;49.006;12.102;2022-10-29T03:12:57;13.70;;;8.43;;
73840;SDS011;62183;49.006;12.102;2022-10-29T03:15:22;12.57;;;9.10;;
73840;SDS011;62183;49.006;12.102;2022-10-29T03:17:48;15.30;;;9.03;;
73840;SDS011;62183;49.006;12.102;2022-10-29T03:20:13;13.37;;;8.27;;
73840;SDS011;62183;49.006;12.102;2022-10-29T03:22:38;12.60;;;8.73;;
73840;SDS011;62183;49.006;12.102;2022-10-29T03:25:03;15.97;;;10.10;;
73840;SDS011;62183;49.006;12.102;2022-10-29T03:27:29;19.23;;;9.45;;
73840;SDS011;62183;49.006;12.102;2022-10-29T03:29:54;16.27;;;9.53;;
73840;SDS011;62183;49.006;12.102;2022-10-29T03:32:19;15.17;;;10.43;;
73840;SDS011;62183;49.006;12.102;2022-10-29T03:34:44;16.03;;;10.20;;
73840;SDS011;62183;49.006;12.102;2022-10-29T03:37:09;18.53;;;9.80;;
73840;SDS011;62183;49.006;12.102;2022-10-29T03:39:34;16.43;;;9.90;;
73840;SDS011;62183;49.006;12.102;2022-10-29T03:42:00;16.80;;;10.27;;
73840;SDS011;62183;49.006;12.102;2022-10-29T03:44:25;18.87;;;9.27;;
73840;SDS011;62183;49.006;12.102;2022-10-29T03:46:50;13.50;;;9.53;;
73840;SDS011;62183;49.006;12.102;2022-10-29T03:49:15;14.50;;;9.60;;
73840;SDS011;62183;49.006;12.102;2022-10-29T03:51:40;15.03;;;9.43;;
73840;SDS011;62183;49.006;12.102;2022-10-29T03:54:06;14.77;;;8.57;;
73840;SDS011;62183;49.006;12.102;2022-10-29T03:56:31;18.00;;;10.17;;
73840;SDS011;62183;49.006;12.102;2022-10-29T03:58:56;15.60;;;9.70;;
73840;SDS011;62183;49.006;12.102;2022-10-29T04:01:21;16.07;;;10.33;;
73840;SDS011;62183;49.006;12.102;2022-10-29T04:03:46;16.40;;;10.23;;
73840;SDS011;62183;49.006;12.102;2022-10-29T04:06:12;16.23;;;10.57;;
73840;SDS011;62183;49.006;12.102;2022-10-29T04:08:38;16.70;;;10.65;;
73840;SDS011;62183;49.006;12.102;2022-10-29T04:11:03;16.57;;;10.67;;
73840;SDS011;62183;49.006;12.102;2022-10-29T04:13:28;20.45;;;11.48;;
73840;SDS011;62183;49.006;12.102;2022-10-29T04:15:54;17.47;;;11.17;;
73840;SDS011;62183;49.006;12.102;2022-10-29T04:18:19;16.45;;;9.98;;
73840;SDS011;62183;49.006;12.102;2022-10-29T04:20:45;17.38;;;10.77;;
73840;SDS011;62183;49.006;12.102;2022-10-29T04:23:10;16.50;;;10.33;;
73840;SDS011;62183;49.006;12.102;2022-10-29T04:25:35;18.27;;;11.47;;
73840;SDS011;62183;49.006;12.102;2022-10-29T04:28:00;21.43;;;11.53;;
73840;SDS011;62183;49.006;12.102;2022-10-29T04:30:25;15.10;;;10.13;;
73840;SDS011;62183;49.006;12.102;2022-10-29T04:32:54;16.53;;;10.57;;
73840;SDS011;62183;49.006;12.102;2022-10-29T04:35:19;16.42;;;9.85;;
73840;SDS011;62183;49.006;12.102;2022-10-29T04:37:44;22.27;;;11.30;;
73840;SDS011;62183;49.006;12.102;2022-10-29T04:40:10;16.20;;;10.30;;
73840;SDS011;62183;49.006;12.102;2022-10-29T04:42:35;18.98;;;11.15;;
73840;SDS011;62183;49.006;12.102;2022-10-29T04:45:01;19.85;;;11.23;;
73840;SDS011;62183;49.006;12.102;2022-10-29T04:47:26;20.03;;;11.03;;
73840;SDS011;62183;49.006;12.102;2022-10-29T04:49:51;18.43;;;10.23;;
73840;SDS011;62183;49.006;12.102;2022-10-29T04:52:16;20.50;;;11.50;;
73840;SDS011;62183;49.006;12.102;2022-10-29T04:54:41;18.63;;;11.77;;
73840;SDS011;62183;49.006;12.102;2022-10-29T04:57:06;19.47;;;12.03;;
73840;SDS011;62183;49.006;12.102;2022-10-29T04:59:32;20.37;;;12.27;;
73840;SDS011;62183;49.006;12.102;2022-10-29T05:01:57;20.17;;;11.77;;
73840;SDS011;62183;49.006;12.102;2022-10-29T05:04:22;20.73;;;12.43;;
73840;SDS011;62183;49.006;12.102;2022-10-29T05:06:47;17.47;;;11.67;;
73840;SDS011;62183;49.006;12.102;2022-10-29T05:09:12;21.37;;;12.10;;
73840;SDS011;62183;49.006;12.102;2022-10-29T05:11:38;16.13;;;11.17;;
73840;SDS011;62183;49.006;12.102;2022-10-29T05:14:03;20.83;;;12.30;;
73840;SDS011;62183;49.006;12.102;2022-10-29T05:16:28;22.58;;;13.25;;
73840;SDS011;62183;49.006;12.102;2022-10-29T05:18:53;22.33;;;11.73;;
73840;SDS011;62183;49.006;12.102;2022-10-29T05:21:18;21.63;;;12.20;;
73840;SDS011;62183;49.006;12.102;2022-10-29T05:23:44;20.63;;;12.43;;
73840;SDS011;62183;49.006;12.102;2022-10-29T05:26:09;19.50;;;12.17;;
73840;SDS011;62183;49.006;12.102;2022-10-29T05:28:34;22.87;;;12.87;;
73840;SDS011;62183;49.006;12.102;2022-10-29T05:30:59;24.03;;;13.20;;
73840;SDS011;62183;49.006;12.102;2022-10-29T05:33:25;19.25;;;11.45;;
73840;SDS011;62183;49.006;12.102;2022-10-29T05:35:50;21.07;;;12.07;;
73840;SDS011;62183;49.006;12.102;2022-10-29T05:38:15;20.73;;;13.65;;
73840;SDS011;62183;49.006;12.102;2022-10-29T05:40:41;22.20;;;12.73;;
73840;SDS011;62183;49.006;12.102;2022-10-29T05:43:07;22.13;;;13.35;;
73840;SDS011;62183;49.006;12.102;2022-10-29T05:45:32;23.35;;;12.75;;
73840;SDS011;62183;49.006;12.102;2022-10-29T05:47:58;17.08;;;10.35;;
73840;SDS011;62183;49.006;12.102;2022-10-29T05:50:23;19.73;;;12.45;;
73840;SDS011;62183;49.006;12.102;2022-10-29T05:52:55;16.77;;;11.50;;
73840;SDS011;62183;49.006;12.102;2022-10-29T05:55:21;21.50;;;12.77;;
73840;SDS011;62183;49.006;12.102;2022-10-29T05:57:46;24.10;;;12.97;;
73840;SDS011;62183;49.006;12.102;2022-10-29T06:00:11;21.13;;;12.47;;
73840;SDS011;62183;49.006;12.102;2022-10-29T06:02:36;21.35;;;12.38;;
73840;SDS011;62183;49.006;12.102;2022-10-29T06:05:02;22.33;;;11.83;;
73840;SDS011;62183;49.006;12.102;2022-10-29T06:07:27;19.03;;;11.47;;
73840;SDS011;62183;49.006;12.102;2022-10-29T06:09:52;18.93;;;11.20;;
73840;SDS011;62183;49.006;12.102;2022-10-29T06:12:17;18.57;;;10.87;;
73840;SDS011;62183;49.006;12.102;2022-10-29T06:14:42;17.23;;;10.00;;
73840;SDS011;62183;49.006;12.102;2022-10-29T06:17:08;23.47;;;12.90;;
73840;SDS011;62183;49.006;12.102;2022-10-29T06:19:33;21.47;;;12.23;;
73840;SDS011;62183;49.006;12.102;2022-10-29T06:21:58;19.13;;;10.60;;
73840;SDS011;62183;49.006;12.102;2022-10-29T06:24:23;17.83;;;10.33;;
73840;SDS011;62183;49.006;12.102;2022-10-29T06:26:51;18.23;;;11.20;;
73840;SDS011;62183;49.006;12.102;2022-10-29T06:29:16;18.88;;;11.68;;
73840;SDS011;62183;49.006;12.102;2022-10-29T06:31:41;16.33;;;10.47;;
73840;SDS011;62183;49.006;12.102;2022-10-29T06:34:07;18.17;;;10.87;;
73840;SDS011;62183;49.006;12.102;2022-10-29T06:36:32;19.93;;;10.23;;
73840;SDS011;62183;49.006;12.102;2022-10-29T06:38:57;18.37;;;10.80;;
73840;SDS011;62183;49.006;12.102;2022-10-29T06:41:22;21.20;;;11.47;;
73840;SDS011;62183;49.006;12.102;2022-10-29T06:43:47;16.97;;;10.77;;
73840;SDS011;62183;49.006;12.102;2022-10-29T06:46:12;18.13;;;10.80;;
73840;SDS011;62183;49.006;12.102;2022-10-29T06:48:38;20.67;;;11.50;;
73840;SDS011;62183;49.006;12.102;2022-10-29T06:51:03;17.73;;;10.43;;
73840;SDS011;62183;49.006;12.102;2022-10-29T06:53:28;18.92;;;11.30;;
73840;SDS011;62183;49.006;12.102;2022-10-29T06:55:53;18.60;;;11.53;;
73840;SDS011;62183;49.006;12.102;2022-10-29T06:58:19;18.33;;;9.73;;
73840;SDS011;62183;49.006;12.102;2022-10-29T07:00:44;13.05;;;9.25;;
73840;SDS011;62183;49.006;12.102;2022-10-29T07:03:19;14.47;;;8.50;;
73840;SDS011;62183;49.006;12.102;2022-10-29T07:05:44;12.10;;;7.88;;
73840;SDS011;62183;49.006;12.102;2022-10-29T07:08:10;14.32;;;9.68;;
73840;SDS011;62183;49.006;12.102;2022-10-29T07:10:35;13.05;;;8.77;;
73840;SDS011;62183;49.006;12.102;2022-10-29T07:13:00;13.55;;;8.20;;
73840;SDS011;62183;49.006;12.102;2022-10-29T07:15:26;12.07;;;8.40;;
73840;SDS011;62183;49.006;12.102;2022-10-29T07:20:27;16.13;;;8.75;;
73840;SDS011;62183;49.006;12.102;2022-10-29T07:22:52;15.43;;;9.48;;
73840;SDS011;62183;49.006;12.102;2022-10-29T07:25:17;23.97;;;17.03;;
73840;SDS011;62183;49.006;12.102;2022-10-29T07:27:43;13.88;;;10.02;;
73840;SDS011;62183;49.006;12.102;2022-10-29T07:30:08;16.47;;;11.13;;
73840;SDS011;62183;49.006;12.102;2022-10-29T07:32:33;21.20;;;11.00;;
73840;SDS011;62183;49.006;12.102;2022-10-29T07:34:58;21.30;;;11.73;;
73840;SDS011;62183;49.006;12.102;2022-10-29T07:37:23;16.00;;;10.53;;
73840;SDS011;62183;49.006;12.102;2022-10-29T07:39:49;15.43;;;10.87;;
73840;SDS011;62183;49.006;12.102;2022-10-29T07:42:14;17.77;;;11.43;;
73840;SDS011;62183;49.006;12.102;2022-10-29T07:44:39;14.60;;;10.53;;
73840;SDS011;62183;49.006;12.102;2022-10-29T07:47:04;21.03;;;11.43;;
73840;SDS011;62183;49.006;12.102;2022-10-29T07:49:29;16.90;;;10.13;;
73840;SDS011;62183;49.006;12.102;2022-10-29T07:51:54;20.23;;;11.33;;
73840;SDS011;62183;49.006;12.102;2022-10-29T07:54:20;14.03;;;10.40;;
73840;SDS011;62183;49.006;12.102;2022-10-29T07:56:45;15.50;;;10.88;;
73840;SDS011;62183;49.006;12.102;2022-10-29T07:59:10;18.87;;;12.00;;
73840;SDS011;62183;49.006;12.102;2022-10-29T08:01:36;20.40;;;12.23;;
73840;SDS011;62183;49.006;12.102;2022-10-29T08:04:01;13.83;;;10.90;;
73840;SDS011;62183;49.006;12.102;2022-10-29T08:06:26;16.77;;;11.43;;
73840;SDS011;62183;49.006;12.102;2022-10-29T08:08:51;18.03;;;11.33;;
73840;SDS011;62183;49.006;12.102;2022-10-29T08:11:16;17.13;;;11.43;;
73840;SDS011;62183;49.006;12.102;2022-10-29T08:13:41;20.00;;;11.10;;
73840;SDS011;62183;49.006;12.102;2022-10-29T08:16:07;13.23;;;9.47;;
73840;SDS011;62183;49.006;12.102;2022-10-29T08:18:32;17.60;;;10.73;;
73840;SDS011;62183;49.006;12.102;2022-10-29T08:20:57;15.20;;;11.10;;
73840;SDS011;62183;49.006;12.102;2022-10-29T08:23:22;16.07;;;10.57;;
73840;SDS011;62183;49.006;12.102;2022-10-29T08:25:48;14.97;;;10.10;;
73840;SDS011;62183;49.006;12.102;2022-10-29T08:28:13;12.98;;;9.38;;
73840;SDS011;62183;49.006;12.102;2022-10-29T08:30:39;22.67;;;11.43;;
73840;SDS011;62183;49.006;12.102;2022-10-29T08:33:04;18.02;;;10.50;;
73840;SDS011;62183;49.006;12.102;2022-10-29T08:35:30;15.48;;;10.35;;
73840;SDS011;62183;49.006;12.102;2022-10-29T08:37:55;13.80;;;9.70;;
73840;SDS011;62183;49.006;12.102;2022-10-29T08:40:26;16.02;;;11.63;;
73840;SDS011;62183;49.006;12.102;2022-10-29T08:42:58;15.73;;;10.80;;
73840;SDS011;62183;49.006;12.102;2022-10-29T08:45:28;14.02;;;9.68;;
73840;SDS011;62183;49.006;12.102;2022-10-29T08:50:41;14.70;;;9.98;;
73840;SDS011;62183;49.006;12.102;2022-10-29T08:53:16;16.77;;;11.13;;
73840;SDS011;62183;49.006;12.102;2022-10-29T08:55:43;15.25;;;10.38;;
73840;SDS011;62183;49.006;12.102;2022-10-29T08:58:16;16.42;;;10.95;;
73840;SDS011;62183;49.006;12.102;2022-10-29T09:00:43;16.92;;;10.77;;
73840;SDS011;62183;49.006;12.102;2022-10-29T09:03:10;14.48;;;10.90;;
73840;SDS011;62183;49.006;12.102;2022-10-29T09:10:52;11.90;;;9.43;;
73840;SDS011;62183;49.006;12.102;2022-10-29T09:13:53;13.98;;;10.65;;
73840;SDS011;62183;49.006;12.102;2022-10-29T09:21:31;14.65;;;11.18;;
73840;SDS011;62183;49.006;12.102;2022-10-29T09:23:57;12.65;;;10.60;;
73840;SDS011;62183;49.006;12.102;2022-10-29T09:26:32;13.57;;;10.52;;
73840;SDS011;62183;49.006;12.102;2022-10-29T09:31:41;12.85;;;10.38;;
73840;SDS011;62183;49.006;12.102;2022-10-29T09:34:10;13.57;;;10.13;;
73840;SDS011;62183;49.006;12.102;2022-10-29T09:36:36;14.20;;;11.32;;
73840;SDS011;62183;49.006;12.102;2022-10-29T09:39:03;15.98;;;11.02;;
73840;SDS011;62183;49.006;12.102;2022-10-29T09:41:33;13.30;;;10.40;;
73840;SDS011;62183;49.006;12.102;2022-10-29T09:44:01;13.77;;;10.70;;
73840;SDS011;62183;49.006;12.102;2022-10-29T09:53:52;12.63;;;9.83;;
73840;SDS011;62183;49.006;12.102;2022-10-29T09:56:18;14.63;;;10.63;;
73840;SDS011;62183;49.006;12.102;2022-10-29T09:58:43;12.23;;;10.30;;
73840;SDS011;62183;49.006;12.102;2022-10-29T10:01:10;17.80;;;10.98;;
73840;SDS011;62183;49.006;12.102;2022-10-29T10:03:37;13.63;;;10.20;;
73840;SDS011;62183;49.006;12.102;2022-10-29T10:06:05;12.25;;;10.20;;
73840;SDS011;62183;49.006;12.102;2022-10-29T10:08:31;13.35;;;10.23;;
73840;SDS011;62183;49.006;12.102;2022-10-29T10:11:00;13.35;;;9.95;;
73840;SDS011;62183;49.006;12.102;2022-10-29T10:13:32;13.50;;;9.68;;
73840;SDS011;62183;49.006;12.102;2022-10-29T10:18:24;15.20;;;10.05;;
73840;SDS011;62183;49.006;12.102;2022-10-29T10:23:27;15.70;;;10.30;;
73840;SDS011;62183;49.006;12.102;2022-10-29T10:25:54;12.18;;;10.23;;
73840;SDS011;62183;49.006;12.102;2022-10-29T10:28:26;13.70;;;10.80;;
73840;SDS011;62183;49.006;12.102;2022-10-29T10:33:24;14.45;;;9.23;;
73840;SDS011;62183;49.006;12.102;2022-10-29T10:35:49;13.07;;;9.82;;
73840;SDS011;62183;49.006;12.102;2022-10-29T10:38:15;12.70;;;9.77;;
73840;SDS011;62183;49.006;12.102;2022-10-29T10:40:40;13.05;;;9.43;;
73840;SDS011;62183;49.006;12.102;2022-10-29T10:43:12;11.73;;;9.48;;
73840;SDS011;62183;49.006;12.102;2022-10-29T10:45:41;10.35;;;9.20;;
73840;SDS011;62183;49.006;12.102;2022-10-29T10:48:07;11.77;;;9.60;;
73840;SDS011;62183;49.006;12.102;2022-10-29T10:50:33;11.55;;;9.27;;
73840;SDS011;62183;49.006;12.102;2022-10-29T10:53:01;11.10;;;9.35;;
73840;SDS011;62183;49.006;12.102;2022-10-29T11:00:23;10.88;;;9.60;;
73840;SDS011;62183;49.006;12.102;2022-10-29T11:05:36;11.52;;;9.25;;
73840;SDS011;62183;49.006;12.102;2022-10-29T11:08:15;12.10;;;9.18;;
73840;SDS011;62183;49.006;12.102;2022-10-29T11:10:49;10.48;;;8.85;;
73840;SDS011;62183;49.006;12.102;2022-10-29T11:13:17;16.83;;;9.77;;
73840;SDS011;62183;49.006;12.102;2022-10-29T11:15:52;11.85;;;9.23;;
73840;SDS011;62183;49.006;12.102;2022-10-29T11:18:20;11.45;;;8.70;;
73840;SDS011;62183;49.006;12.102;2022-10-29T11:20:58;12.50;;;9.15;;
73840;SDS011;62183;49.006;12.102;2022-10-29T11:23:32;15.25;;;9.35;;
73840;SDS011;62183;49.006;12.102;2022-10-29T11:26:06;11.82;;;8.32;;
73840;SDS011;62183;49.006;12.102;2022-10-29T11:31:28;13.15;;;8.88;;
73840;SDS011;62183;49.006;12.102;2022-10-29T11:34:04;10.52;;;9.13;;
73840;SDS011;62183;49.006;12.102;2022-10-29T11:36:33;12.90;;;9.05;;
73840;SDS011;62183;49.006;12.102;2022-10-29T11:39:15;11.65;;;9.50;;
73840;SDS011;62183;49.006;12.102;2022-10-29T11:41:44;12.05;;;9.23;;
73840;SDS011;62183;49.006;12.102;2022-10-29T11:44:11;13.43;;;9.52;;
73840;SDS011;62183;49.006;12.102;2022-10-29T11:49:23;13.45;;;8.82;;
73840;SDS011;62183;49.006;12.102;2022-10-29T11:52:02;13.25;;;8.93;;
73840;SDS011;62183;49.006;12.102;2022-10-29T11:58:00;9.80;;;8.80;;
73840;SDS011;62183;49.006;12.102;2022-10-29T12:07:44;12.57;;;8.23;;
73840;SDS011;62183;49.006;12.102;2022-10-29T12:12:52;12.80;;;8.98;;
73840;SDS011;62183;49.006;12.102;2022-10-29T12:15:21;13.75;;;8.85;;
73840;SDS011;62183;49.006;12.102;2022-10-29T12:20:21;11.50;;;8.77;;
73840;SDS011;62183;49.006;12.102;2022-10-29T12:22:57;12.60;;;9.15;;
73840;SDS011;62183;49.006;12.102;2022-10-29T12:30:19;10.00;;;8.90;;
73840;SDS011;62183;49.006;12.102;2022-10-29T12:37:41;10.00;;;7.90;;
73840;SDS011;62183;49.006;12.102;2022-10-29T12:40:11;9.32;;;8.07;;
73840;SDS011;62183;49.006;12.102;2022-10-29T12:42:38;9.43;;;8.10;;
73840;SDS011;62183;49.006;12.102;2022-10-29T12:45:13;9.95;;;7.93;;
73840;SDS011;62183;49.006;12.102;2022-10-29T12:47:46;11.70;;;8.38;;
73840;SDS011;62183;49.006;12.102;2022-10-29T12:52:44;8.93;;;8.05;;
73840;SDS011;62183;49.006;12.102;2022-10-29T12:55:11;8.60;;;7.70;;
73840;SDS011;62183;49.006;12.102;2022-10-29T12:57:37;9.02;;;8.13;;
73840;SDS011;62183;49.006;12.102;2022-10-29T13:00:45;10.57;;;8.07;;
73840;SDS011;62183;49.006;12.102;2022-10-29T13:02:54;9.10;;;7.78;;
73840;SDS011;62183;49.006;12.102;2022-10-29T13:15:23;11.23;;;7.82;;
73840;SDS011;62183;49.006;12.102;2022-10-29T13:17:51;9.13;;;8.18;;
73840;SDS011;62183;49.006;12.102;2022-10-29T13:20:19;10.20;;;7.97;;
73840;SDS011;62183;49.006;12.102;2022-10-29T13:27:55;12.05;;;7.70;;
73840;SDS011;62183;49.006;12.102;2022-10-29T13:30:21;9.70;;;7.20;;
73840;SDS011;62183;49.006;12.102;2022-10-29T13:32:46;7.95;;;7.18;;
73840;SDS011;62183;49.006;12.102;2022-10-29T13:37:53;7.68;;;6.85;;
73840;SDS011;62183;49.006;12.102;2022-10-29T13:42:48;7.40;;;6.57;;
73840;SDS011;62183;49.006;12.102;2022-10-29T13:45:18;10.57;;;6.90;;
73840;SDS011;62183;49.006;12.102;2022-10-29T13:47:43;8.18;;;6.45;;
73840;SDS011;62183;49.006;12.102;2022-10-29T13:50:09;7.50;;;6.75;;
73840;SDS011;62183;49.006;12.102;2022-10-29T13:52:35;9.98;;;6.68;;
73840;SDS011;62183;49.006;12.102;2022-10-29T13:55:06;8.70;;;6.73;;
73840;SDS011;62183;49.006;12.102;2022-10-29T14:00:00;9.60;;;7.03;;
73840;SDS011;62183;49.006;12.102;2022-10-29T14:02:43;10.10;;;6.43;;
73840;SDS011;62183;49.006;12.102;2022-10-29T14:10:29;7.93;;;6.27;;
73840;SDS011;62183;49.006;12.102;2022-10-29T14:12:57;8.43;;;6.78;;
73840;SDS011;62183;49.006;12.102;2022-10-29T14:15:24;8.70;;;6.40;;
73840;SDS011;62183;49.006;12.102;2022-10-29T14:17:49;10.43;;;6.90;;
73840;SDS011;62183;49.006;12.102;2022-10-29T14:20:21;11.13;;;6.77;;
73840;SDS011;62183;49.006;12.102;2022-10-29T14:22:47;8.98;;;7.13;;
73840;SDS011;62183;49.006;12.102;2022-10-29T14:25:32;7.30;;;6.60;;
73840;SDS011;62183;49.006;12.102;2022-10-29T14:28:07;9.93;;;6.72;;
73840;SDS011;62183;49.006;12.102;2022-10-29T14:30:33;8.57;;;6.80;;
73840;SDS011;62183;49.006;12.102;2022-10-29T14:32:58;8.52;;;6.90;;
73840;SDS011;62183;49.006;12.102;2022-10-29T14:35:23;9.77;;;7.30;;
73840;SDS011;62183;49.006;12.102;2022-10-29T14:37:49;8.65;;;7.05;;
73840;SDS011;62183;49.006;12.102;2022-10-29T14:40:15;8.57;;;6.55;;
73840;SDS011;62183;49.006;12.102;2022-10-29T14:42:43;8.52;;;6.70;;
73840;SDS011;62183;49.006;12.102;2022-10-29T14:45:27;9.35;;;6.90;;
73840;SDS011;62183;49.006;12.102;2022-10-29T14:47:54;9.68;;;7.40;;
73840;SDS011;62183;49.006;12.102;2022-10-29T14:50:24;10.05;;;6.97;;
73840;SDS011;62183;49.006;12.102;2022-10-29T14:52:53;7.85;;;6.80;;
73840;SDS011;62183;49.006;12.102;2022-10-29T14:55:21;7.10;;;6.40;;
73840;SDS011;62183;49.006;12.102;2022-10-29T14:57:59;9.02;;;6.63;;
73840;SDS011;62183;49.006;12.102;2022-10-29T15:00:26;9.20;;;6.60;;
73840;SDS011;62183;49.006;12.102;2022-10-29T15:02:53;7.53;;;5.97;;
73840;SDS011;62183;49.006;12.102;2022-10-29T15:05:20;7.57;;;6.32;;
73840;SDS011;62183;49.006;12.102;2022-10-29T15:07:46;11.48;;;7.18;;
73840;SDS011;62183;49.006;12.102;2022-10-29T15:12:39;8.35;;;6.55;;
73840;SDS011;62183;49.006;12.102;2022-10-29T15:17:32;8.85;;;6.60;;
73840;SDS011;62183;49.006;12.102;2022-10-29T15:20:00;8.65;;;6.60;;
73840;SDS011;62183;49.006;12.102;2022-10-29T15:22:36;10.45;;;6.97;;
73840;SDS011;62183;49.006;12.102;2022-10-29T15:25:02;9.10;;;6.35;;
73840;SDS011;62183;49.006;12.102;2022-10-29T15:27:29;11.80;;;7.00;;
73840;SDS011;62183;49.006;12.102;2022-10-29T15:29:54;12.18;;;7.60;;
73840;SDS011;62183;49.006;12.102;2022-10-29T15:32:20;10.30;;;7.05;;
73840;SDS011;62183;49.006;12.102;2022-10-29T15:34:54;8.02;;;7.22;;
73840;SDS011;62183;49.006;12.102;2022-10-29T15:37:22;12.65;;;7.15;;
73840;SDS011;62183;49.006;12.102;2022-10-29T15:42:20;8.77;;;7.18;;
73840;SDS011;62183;49.006;12.102;2022-10-29T15:44:59;10.88;;;6.97;;
73840;SDS011;62183;49.006;12.102;2022-10-29T15:47:26;12.05;;;7.65;;
73840;SDS011;62183;49.006;12.102;2022-10-29T15:49:52;10.48;;;7.40;;
73840;SDS011;62183;49.006;12.102;2022-10-29T15:52:17;10.50;;;7.93;;
73840;SDS011;62183;49.006;12.102;2022-10-29T15:54:42;12.90;;;8.25;;
73840;SDS011;62183;49.006;12.102;2022-10-29T15:57:11;13.65;;;8.32;;
73840;SDS011;62183;49.006;12.102;2022-10-29T15:59:37;12.82;;;8.45;;
73840;SDS011;62183;49.006;12.102;2022-10-29T16:02:08;9.40;;;6.85;;
73840;SDS011;62183;49.006;12.102;2022-10-29T16:04:33;12.13;;;8.13;;
73840;SDS011;62183;49.006;12.102;2022-10-29T16:06:58;12.33;;;7.83;;
73840;SDS011;62183;49.006;12.102;2022-10-29T16:09:24;13.67;;;9.13;;
73840;SDS011;62183;49.006;12.102;2022-10-29T16:11:49;12.43;;;8.00;;
73840;SDS011;62183;49.006;12.102;2022-10-29T16:14:14;9.13;;;8.23;;
73840;SDS011;62183;49.006;12.102;2022-10-29T16:16:39;14.87;;;9.90;;
73840;SDS011;62183;49.006;12.102;2022-10-29T16:19:04;13.17;;;9.93;;
73840;SDS011;62183;49.006;12.102;2022-10-29T16:21:30;13.40;;;9.63;;
73840;SDS011;62183;49.006;12.102;2022-10-29T16:23:55;12.00;;;9.30;;
73840;SDS011;62183;49.006;12.102;2022-10-29T16:26:21;13.37;;;9.60;;
73840;SDS011;62183;49.006;12.102;2022-10-29T16:28:46;12.60;;;9.95;;
73840;SDS011;62183;49.006;12.102;2022-10-29T16:31:19;15.35;;;9.27;;
73840;SDS011;62183;49.006;12.102;2022-10-29T16:33:45;12.88;;;8.65;;
73840;SDS011;62183;49.006;12.102;2022-10-29T16:36:10;10.35;;;8.35;;
73840;SDS011;62183;49.006;12.102;2022-10-29T16:38:35;14.13;;;9.27;;
73840;SDS011;62183;49.006;12.102;2022-10-29T16:41:00;12.90;;;9.07;;
73840;SDS011;62183;49.006;12.102;2022-10-29T16:43:26;10.67;;;8.17;;
73840;SDS011;62183;49.006;12.102;2022-10-29T16:45:51;13.23;;;8.77;;
73840;SDS011;62183;49.006;12.102;2022-10-29T16:48:16;10.90;;;7.67;;